sensor_id;sensor_type;location;lat;lon;timestamp;pressure;altitude;pressure_sealevel;temperature;humidity
14293;BME280;62290;59.420;17.842;2023-11-21T00:00:04;101547.41;;;24.64;22.94
14293;BME280;62290;59.420;17.842;2023-11-21T00:02:38;101551.22;;;24.61;22.94
14293;BME280;62290;59.420;17.842;2023-11-21T00:05:09;101549.50;;;24.60;22.80
14293;BME280;62290;59.420;17.842;2023-11-21T00:07:38;101552.28;;;24.58;22.80
14293;BME280;62290;59.420;17.842;2023-11-21T00:10:07;101545.28;;;24.56;22.84
14293;BME280;62290;59.420;17.842;2023-11-21T00:12:37;101557.94;;;24.55;23.15
14293;BME280;62290;59.420;17.842;2023-11-21T00:15:09;101556.94;;;24.56;22.90
14293;BME280;62290;59.420;17.842;2023-11-21T00:17:38;101557.06;;;24.55;22.92
14293;BME280;62290;59.420;17.842;2023-11-21T00:20:09;101564.44;;;24.53;22.90
14293;BME280;62290;59.420;17.842;2023-11-21T00:22:40;101561.72;;;24.53;22.73
14293;BME280;62290;59.420;17.842;2023-11-21T00:25:09;101570.78;;;24.52;22.87
14293;BME280;62290;59.420;17.842;2023-11-21T00:27:38;101566.50;;;24.49;22.79
14293;BME280;62290;59.420;17.842;2023-11-21T00:30:06;101568.31;;;24.49;22.81
14293;BME280;62290;59.420;17.842;2023-11-21T00:32:35;101574.72;;;24.48;23.01
14293;BME280;62290;59.420;17.842;2023-11-21T00:35:04;101566.72;;;24.46;22.80
14293;BME280;62290;59.420;17.842;2023-11-21T00:37:34;101571.38;;;24.44;23.00
14293;BME280;62290;59.420;17.842;2023-11-21T00:40:02;101572.34;;;24.43;22.87
14293;BME280;62290;59.420;17.842;2023-11-21T00:42:33;101575.91;;;24.44;22.69
14293;BME280;62290;59.420;17.842;2023-11-21T00:45:02;101574.06;;;24.44;22.90
14293;BME280;62290;59.420;17.842;2023-11-21T00:47:30;101572.34;;;24.43;22.70
14293;BME280;62290;59.420;17.842;2023-11-21T00:49:58;101579.56;;;24.43;22.98
14293;BME280;62290;59.420;17.842;2023-11-21T00:52:26;101570.66;;;24.42;22.89
14293;BME280;62290;59.420;17.842;2023-11-21T00:54:56;101576.03;;;24.42;22.82
14293;BME280;62290;59.420;17.842;2023-11-21T00:57:25;101582.53;;;24.40;22.95
14293;BME280;62290;59.420;17.842;2023-11-21T00:59:53;101582.53;;;24.40;22.78
14293;BME280;62290;59.420;17.842;2023-11-21T01:02:21;101587.06;;;24.39;22.75
14293;BME280;62290;59.420;17.842;2023-11-21T01:04:49;101582.53;;;24.40;22.73
14293;BME280;62290;59.420;17.842;2023-11-21T01:07:17;101599.78;;;24.37;22.84
14293;BME280;62290;59.420;17.842;2023-11-21T01:09:47;101583.94;;;24.33;22.78
14293;BME280;62290;59.420;17.842;2023-11-21T01:12:16;101590.56;;;24.29;22.92
14293;BME280;62290;59.420;17.842;2023-11-21T01:14:45;101596.19;;;24.26;22.74
14293;BME280;62290;59.420;17.842;2023-11-21T01:17:13;101595.44;;;24.24;22.98
14293;BME280;62290;59.420;17.842;2023-11-21T01:19:41;101603.75;;;24.21;22.99
14293;BME280;62290;59.420;17.842;2023-11-21T01:22:10;101602.03;;;24.20;23.10
14293;BME280;62290;59.420;17.842;2023-11-21T01:24:38;101609.38;;;24.18;23.11
14293;BME280;62290;59.420;17.842;2023-11-21T01:27:06;101613.06;;;24.17;22.91
14293;BME280;62290;59.420;17.842;2023-11-21T01:29:37;101606.81;;;24.16;22.93
14293;BME280;62290;59.420;17.842;2023-11-21T01:32:05;101605.22;;;24.14;23.15
14293;BME280;62290;59.420;17.842;2023-11-21T01:34:34;101616.06;;;24.12;23.18
14293;BME280;62290;59.420;17.842;2023-11-21T01:37:02;101615.47;;;24.09;23.04
14293;BME280;62290;59.420;17.842;2023-11-21T01:39:31;101627.06;;;24.09;23.01
14293;BME280;62290;59.420;17.842;2023-11-21T01:41:59;101623.63;;;24.07;23.05
14293;BME280;62290;59.420;17.842;2023-11-21T01:44:27;101626.44;;;24.06;23.24
14293;BME280;62290;59.420;17.842;2023-11-21T01:46:58;101626.44;;;24.06;22.94
14293;BME280;62290;59.420;17.842;2023-11-21T01:49:26;101629.22;;;24.04;23.25
14293;BME280;62290;59.420;17.842;2023-11-21T01:51:54;101631.91;;;24.04;23.21
14293;BME280;62290;59.420;17.842;2023-11-21T01:54:23;101631.09;;;24.04;23.12
14293;BME280;62290;59.420;17.842;2023-11-21T01:56:51;101641.84;;;24.04;23.00
14293;BME280;62290;59.420;17.842;2023-11-21T01:59:21;101645.38;;;24.04;23.21
14293;BME280;62290;59.420;17.842;2023-11-21T02:01:49;101641.94;;;24.02;23.17
14293;BME280;62290;59.420;17.842;2023-11-21T02:04:19;101641.09;;;24.02;22.94
14293;BME280;62290;59.420;17.842;2023-11-21T02:06:48;101642.19;;;23.99;23.21
14293;BME280;62290;59.420;17.842;2023-11-21T02:09:24;101638.63;;;23.98;22.97
14293;BME280;62290;59.420;17.842;2023-11-21T02:14:24;101640.56;;;23.96;23.17
14293;BME280;62290;59.420;17.842;2023-11-21T02:16:55;101638.00;;;23.95;22.95
14293;BME280;62290;59.420;17.842;2023-11-21T02:19:25;101639.84;;;23.94;23.25
14293;BME280;62290;59.420;17.842;2023-11-21T02:21:53;101646.31;;;23.92;23.12
14293;BME280;62290;59.420;17.842;2023-11-21T02:24:23;101645.34;;;23.93;22.97
14293;BME280;62290;59.420;17.842;2023-11-21T02:26:52;101652.44;;;23.94;22.92
14293;BME280;62290;59.420;17.842;2023-11-21T02:29:20;101655.75;;;23.98;23.01
14293;BME280;62290;59.420;17.842;2023-11-21T02:31:52;101651.13;;;24.00;22.97
14293;BME280;62290;59.420;17.842;2023-11-21T02:34:22;101659.09;;;24.01;22.95
14293;BME280;62290;59.420;17.842;2023-11-21T02:36:52;101665.31;;;24.02;23.10
14293;BME280;62290;59.420;17.842;2023-11-21T02:39:20;101669.00;;;24.01;22.73
14293;BME280;62290;59.420;17.842;2023-11-21T02:41:52;101669.75;;;24.03;22.99
14293;BME280;62290;59.420;17.842;2023-11-21T02:44:21;101675.13;;;24.03;22.95
14293;BME280;62290;59.420;17.842;2023-11-21T02:46:48;101675.88;;;24.05;23.02
14293;BME280;62290;59.420;17.842;2023-11-21T02:49:17;101672.31;;;24.04;23.08
14293;BME280;62290;59.420;17.842;2023-11-21T02:51:45;101676.88;;;24.04;22.97
14293;BME280;62290;59.420;17.842;2023-11-21T02:54:13;101678.56;;;24.05;23.12
14293;BME280;62290;59.420;17.842;2023-11-21T02:56:43;101685.91;;;24.03;23.07
14293;BME280;62290;59.420;17.842;2023-11-21T02:59:12;101685.78;;;24.04;23.02
14293;BME280;62290;59.420;17.842;2023-11-21T03:01:40;101685.78;;;24.04;23.10
14293;BME280;62290;59.420;17.842;2023-11-21T03:04:08;101687.63;;;24.04;22.97
14293;BME280;62290;59.420;17.842;2023-11-21T03:06:36;101686.25;;;23.98;23.02
14293;BME280;62290;59.420;17.842;2023-11-21T03:09:04;101698.28;;;24.05;22.90
14293;BME280;62290;59.420;17.842;2023-11-21T03:11:33;101699.16;;;24.06;22.88
14293;BME280;62290;59.420;17.842;2023-11-21T03:14:01;101704.53;;;24.06;23.02
14293;BME280;62290;59.420;17.842;2023-11-21T03:16:31;101708.19;;;24.05;23.07
14293;BME280;62290;59.420;17.842;2023-11-21T03:19:00;101708.41;;;24.02;23.01
14293;BME280;62290;59.420;17.842;2023-11-21T03:21:28;101710.13;;;24.03;23.06
14293;BME280;62290;59.420;17.842;2023-11-21T03:23:56;101704.97;;;24.00;22.99
14293;BME280;62290;59.420;17.842;2023-11-21T03:26:24;101713.41;;;23.95;23.01
14293;BME280;62290;59.420;17.842;2023-11-21T03:28:52;101721.69;;;23.92;23.17
14293;BME280;62290;59.420;17.842;2023-11-21T03:31:20;101718.25;;;23.90;23.14
14293;BME280;62290;59.420;17.842;2023-11-21T03:33:50;101720.22;;;23.88;23.17
14293;BME280;62290;59.420;17.842;2023-11-21T03:36:20;101726.69;;;23.85;23.30
14293;BME280;62290;59.420;17.842;2023-11-21T03:38:48;101725.81;;;23.85;23.16
14293;BME280;62290;59.420;17.842;2023-11-21T03:41:16;101729.38;;;23.85;23.33
14293;BME280;62290;59.420;17.842;2023-11-21T03:43:44;101729.69;;;23.81;23.16
14293;BME280;62290;59.420;17.842;2023-11-21T03:46:13;101733.97;;;23.83;23.36
14293;BME280;62290;59.420;17.842;2023-11-21T03:48:42;101734.97;;;23.82;23.33
14293;BME280;62290;59.420;17.842;2023-11-21T03:51:11;101740.44;;;23.81;23.14
14293;BME280;62290;59.420;17.842;2023-11-21T03:53:39;101743.28;;;23.79;23.28
14293;BME280;62290;59.420;17.842;2023-11-21T03:56:09;101739.84;;;23.77;23.40
14293;BME280;62290;59.420;17.842;2023-11-21T03:58:38;101735.41;;;23.76;23.34
14293;BME280;62290;59.420;17.842;2023-11-21T04:01:06;101736.28;;;23.77;23.41
14293;BME280;62290;59.420;17.842;2023-11-21T04:03:34;101747.13;;;23.75;23.42
14293;BME280;62290;59.420;17.842;2023-11-21T04:06:03;101747.03;;;23.77;23.43
14293;BME280;62290;59.420;17.842;2023-11-21T04:08:34;101749.00;;;23.75;23.41
14293;BME280;62290;59.420;17.842;2023-11-21T04:11:02;101749.00;;;23.75;23.39
14293;BME280;62290;59.420;17.842;2023-11-21T04:13:30;101757.91;;;23.75;23.41
14293;BME280;62290;59.420;17.842;2023-11-21T04:15:58;101734.78;;;23.60;23.49
14293;BME280;62290;59.420;17.842;2023-11-21T04:18:29;101766.84;;;23.76;23.40
14293;BME280;62290;59.420;17.842;2023-11-21T04:20:57;101768.56;;;23.77;23.38
14293;BME280;62290;59.420;17.842;2023-11-21T04:23:26;101765.16;;;23.75;23.39
14293;BME280;62290;59.420;17.842;2023-11-21T04:25:55;101768.03;;;23.72;23.46
14293;BME280;62290;59.420;17.842;2023-11-21T04:28:23;101767.06;;;23.73;23.32
14293;BME280;62290;59.420;17.842;2023-11-21T04:30:52;101769.88;;;23.71;23.65
14293;BME280;62290;59.420;17.842;2023-11-21T04:33:20;101770.81;;;23.70;23.44
14293;BME280;62290;59.420;17.842;2023-11-21T04:35:48;101776.13;;;23.72;23.35
14293;BME280;62290;59.420;17.842;2023-11-21T04:38:16;101778.06;;;23.70;23.23
14293;BME280;62290;59.420;17.842;2023-11-21T04:40:44;101783.22;;;23.73;23.27
14293;BME280;62290;59.420;17.842;2023-11-21T04:43:13;101789.38;;;23.75;23.40
14293;BME280;62290;59.420;17.842;2023-11-21T04:45:42;101790.19;;;23.75;23.32
14293;BME280;62290;59.420;17.842;2023-11-21T04:48:10;101784.59;;;23.78;23.39
14293;BME280;62290;59.420;17.842;2023-11-21T04:50:38;101797.09;;;23.79;23.35
14293;BME280;62290;59.420;17.842;2023-11-21T04:53:06;101803.22;;;23.81;23.48
14293;BME280;62290;59.420;17.842;2023-11-21T04:55:34;101805.94;;;23.81;23.35
14293;BME280;62290;59.420;17.842;2023-11-21T04:58:02;101803.22;;;23.81;23.39
14293;BME280;62290;59.420;17.842;2023-11-21T05:00:32;101808.41;;;23.84;23.37
14293;BME280;62290;59.420;17.842;2023-11-21T05:03:00;101815.63;;;23.84;23.24
14293;BME280;62290;59.420;17.842;2023-11-21T05:05:29;101812.81;;;23.85;23.57
14293;BME280;62290;59.420;17.842;2023-11-21T05:07:57;101818.22;;;23.85;23.31
14293;BME280;62290;59.420;17.842;2023-11-21T05:10:25;101821.75;;;23.86;23.32
14293;BME280;62290;59.420;17.842;2023-11-21T05:12:53;101824.44;;;23.86;23.44
14293;BME280;62290;59.420;17.842;2023-11-21T05:15:22;101824.44;;;23.86;23.31
14293;BME280;62290;59.420;17.842;2023-11-21T05:17:51;101821.75;;;23.86;23.42
14293;BME280;62290;59.420;17.842;2023-11-21T05:20:20;101831.75;;;23.84;23.31
14293;BME280;62290;59.420;17.842;2023-11-21T05:22:48;101831.75;;;23.84;23.37
14293;BME280;62290;59.420;17.842;2023-11-21T05:25:16;101829.06;;;23.84;23.40
14293;BME280;62290;59.420;17.842;2023-11-21T05:27:45;101826.19;;;23.74;23.38
14293;BME280;62290;59.420;17.842;2023-11-21T05:30:13;101836.28;;;23.83;23.23
14293;BME280;62290;59.420;17.842;2023-11-21T05:32:41;101832.84;;;23.81;23.17
14293;BME280;62290;59.420;17.842;2023-11-21T05:35:12;101841.88;;;23.80;23.32
14293;BME280;62290;59.420;17.842;2023-11-21T05:37:43;101842.75;;;23.81;23.07
14293;BME280;62290;59.420;17.842;2023-11-21T05:40:12;101845.56;;;23.79;23.23
14293;BME280;62290;59.420;17.842;2023-11-21T05:42:40;101844.56;;;23.80;23.23
14293;BME280;62290;59.420;17.842;2023-11-21T05:45:09;101826.81;;;23.65;23.13
14293;BME280;62290;59.420;17.842;2023-11-21T05:47:39;101841.25;;;23.77;23.19
14293;BME280;62290;59.420;17.842;2023-11-21T05:50:09;101858.03;;;23.80;23.21
14293;BME280;62290;59.420;17.842;2023-11-21T05:52:40;101850.94;;;23.79;23.12
14293;BME280;62290;59.420;17.842;2023-11-21T05:55:09;101850.06;;;23.79;23.12
14293;BME280;62290;59.420;17.842;2023-11-21T05:57:38;101854.59;;;23.78;23.11
14293;BME280;62290;59.420;17.842;2023-11-21T06:00:07;101854.59;;;23.78;23.24
14293;BME280;62290;59.420;17.842;2023-11-21T06:02:39;101860.97;;;23.77;23.28
14293;BME280;62290;59.420;17.842;2023-11-21T06:05:08;101864.41;;;23.79;23.25
14293;BME280;62290;59.420;17.842;2023-11-21T06:07:37;101869.78;;;23.79;23.11
14293;BME280;62290;59.420;17.842;2023-11-21T06:10:10;101867.19;;;23.78;23.08
14293;BME280;62290;59.420;17.842;2023-11-21T06:12:39;101870.75;;;23.78;23.12
14293;BME280;62290;59.420;17.842;2023-11-21T06:15:10;101872.47;;;23.79;23.03
14293;BME280;62290;59.420;17.842;2023-11-21T06:17:41;101878.72;;;23.80;23.10
14293;BME280;62290;59.420;17.842;2023-11-21T06:20:10;101866.78;;;23.71;23.02
14293;BME280;62290;59.420;17.842;2023-11-21T06:22:42;101884.94;;;23.80;23.21
14293;BME280;62290;59.420;17.842;2023-11-21T06:25:12;101881.50;;;23.78;23.24
14293;BME280;62290;59.420;17.842;2023-11-21T06:27:42;101888.84;;;23.76;23.26
14293;BME280;62290;59.420;17.842;2023-11-21T06:30:11;101896.06;;;23.76;23.38
14293;BME280;62290;59.420;17.842;2023-11-21T06:32:41;101901.44;;;23.76;23.36
14293;BME280;62290;59.420;17.842;2023-11-21T06:35:13;101875.47;;;23.62;23.20
14293;BME280;62290;59.420;17.842;2023-11-21T06:37:43;101903.59;;;23.71;23.41
14293;BME280;62290;59.420;17.842;2023-11-21T06:40:17;101907.16;;;23.71;23.37
14293;BME280;62290;59.420;17.842;2023-11-21T06:42:47;101918.03;;;23.70;23.24
14293;BME280;62290;59.420;17.842;2023-11-21T06:45:16;101910.03;;;23.68;23.38
14293;BME280;62290;59.420;17.842;2023-11-21T06:47:44;101910.16;;;23.67;23.19
14293;BME280;62290;59.420;17.842;2023-11-21T06:50:13;101892.16;;;23.55;23.21
14293;BME280;62290;59.420;17.842;2023-11-21T06:52:41;101911.44;;;23.61;23.27
14293;BME280;62290;59.420;17.842;2023-11-21T06:55:10;101918.53;;;23.62;23.12
14293;BME280;62290;59.420;17.842;2023-11-21T06:57:39;101921.34;;;23.61;23.33
14293;BME280;62290;59.420;17.842;2023-11-21T07:00:08;101932.09;;;23.61;23.20
14293;BME280;62290;59.420;17.842;2023-11-21T07:02:37;101930.47;;;23.58;23.23
14293;BME280;62290;59.420;17.842;2023-11-21T07:05:06;101937.81;;;23.56;23.08
14293;BME280;62290;59.420;17.842;2023-11-21T07:07:34;101935.13;;;23.56;23.46
14293;BME280;62290;59.420;17.842;2023-11-21T07:10:05;101936.94;;;23.56;23.54
14293;BME280;62290;59.420;17.842;2023-11-21T07:12:33;101949.31;;;23.58;24.32
14293;BME280;62290;59.420;17.842;2023-11-21T07:15:04;101942.00;;;23.60;24.34
14293;BME280;62290;59.420;17.842;2023-11-21T07:17:35;101952.75;;;23.60;24.75
14293;BME280;62290;59.420;17.842;2023-11-21T07:20:07;101947.38;;;23.60;24.51
14293;BME280;62290;59.420;17.842;2023-11-21T07:22:36;101949.13;;;23.61;24.48
14293;BME280;62290;59.420;17.842;2023-11-21T07:25:04;101963.31;;;23.63;24.17
14293;BME280;62290;59.420;17.842;2023-11-21T07:27:34;101957.19;;;23.61;24.13
14293;BME280;62290;59.420;17.842;2023-11-21T07:30:05;101952.56;;;23.63;23.95
14293;BME280;62290;59.420;17.842;2023-11-21T07:32:34;101960.63;;;23.63;23.90
14293;BME280;62290;59.420;17.842;2023-11-21T07:35:03;101964.94;;;23.66;23.72
14293;BME280;62290;59.420;17.842;2023-11-21T07:37:31;101970.22;;;23.67;23.51
14293;BME280;62290;59.420;17.842;2023-11-21T07:39:59;101961.38;;;23.65;23.63
14293;BME280;62290;59.420;17.842;2023-11-21T07:42:27;101969.16;;;23.70;23.42
14293;BME280;62290;59.420;17.842;2023-11-21T07:44:55;101968.19;;;23.71;23.35
14293;BME280;62290;59.420;17.842;2023-11-21T07:47:25;101970.78;;;23.72;23.35
14293;BME280;62290;59.420;17.842;2023-11-21T07:49:54;101973.47;;;23.72;23.30
14293;BME280;62290;59.420;17.842;2023-11-21T07:52:23;101975.19;;;23.73;23.22
14293;BME280;62290;59.420;17.842;2023-11-21T07:54:51;101973.47;;;23.72;23.13
14293;BME280;62290;59.420;17.842;2023-11-21T07:57:19;101975.19;;;23.73;23.29
14293;BME280;62290;59.420;17.842;2023-11-21T07:59:47;101971.63;;;23.73;23.25
14293;BME280;62290;59.420;17.842;2023-11-21T08:02:15;101981.44;;;23.74;23.15
14293;BME280;62290;59.420;17.842;2023-11-21T08:04:46;101993.16;;;23.73;22.98
14293;BME280;62290;59.420;17.842;2023-11-21T08:07:17;101996.72;;;23.73;23.08
14293;BME280;62290;59.420;17.842;2023-11-21T08:09:45;102002.31;;;23.70;22.84
14293;BME280;62290;59.420;17.842;2023-11-21T08:12:15;102002.31;;;23.70;22.96
14293;BME280;62290;59.420;17.842;2023-11-21T08:14:43;102001.47;;;23.70;22.97
14293;BME280;62290;59.420;17.842;2023-11-21T08:17:11;102001.66;;;23.67;22.99
14293;BME280;62290;59.420;17.842;2023-11-21T08:19:42;102001.66;;;23.67;23.01
14293;BME280;62290;59.420;17.842;2023-11-21T08:22:13;102004.44;;;23.65;22.98
14293;BME280;62290;59.420;17.842;2023-11-21T08:24:42;102009.84;;;23.65;22.83
14293;BME280;62290;59.420;17.842;2023-11-21T08:27:10;102014.25;;;23.66;22.90
14293;BME280;62290;59.420;17.842;2023-11-21T08:29:38;102006.38;;;23.63;22.83
14293;BME280;62290;59.420;17.842;2023-11-21T08:32:06;102014.34;;;23.65;22.87
14293;BME280;62290;59.420;17.842;2023-11-21T08:34:34;102011.03;;;23.61;22.85
14293;BME280;62290;59.420;17.842;2023-11-21T08:37:03;102017.16;;;23.63;22.77
14293;BME280;62290;59.420;17.842;2023-11-21T08:39:32;102015.41;;;23.62;22.78
14293;BME280;62290;59.420;17.842;2023-11-21T08:42:00;102021.78;;;23.61;22.84
14293;BME280;62290;59.420;17.842;2023-11-21T08:44:29;102024.47;;;23.61;22.73
14293;BME280;62290;59.420;17.842;2023-11-21T08:46:57;102024.56;;;23.60;22.74
14293;BME280;62290;59.420;17.842;2023-11-21T08:49:25;102033.41;;;23.62;22.69
14293;BME280;62290;59.420;17.842;2023-11-21T08:51:54;102033.63;;;23.59;22.67
14293;BME280;62290;59.420;17.842;2023-11-21T08:54:24;102031.78;;;23.59;22.56
14293;BME280;62290;59.420;17.842;2023-11-21T08:56:54;102043.41;;;23.60;22.59
14293;BME280;62290;59.420;17.842;2023-11-21T08:59:24;102042.56;;;23.59;22.66
14293;BME280;62290;59.420;17.842;2023-11-21T09:01:52;102047.06;;;23.59;22.57
14293;BME280;62290;59.420;17.842;2023-11-21T09:04:20;102051.59;;;23.58;22.42
14293;BME280;62290;59.420;17.842;2023-11-21T09:06:48;102051.47;;;23.60;22.54
14293;BME280;62290;59.420;17.842;2023-11-21T09:09:16;102054.06;;;23.61;22.46
14293;BME280;62290;59.420;17.842;2023-11-21T09:11:46;102062.91;;;23.63;22.49
14293;BME280;62290;59.420;17.842;2023-11-21T09:14:17;102060.34;;;23.62;22.45
14293;BME280;62290;59.420;17.842;2023-11-21T09:16:45;102061.97;;;23.64;22.37
14293;BME280;62290;59.420;17.842;2023-11-21T09:19:13;102070.88;;;23.65;22.44
14293;BME280;62290;59.420;17.842;2023-11-21T09:21:42;102070.78;;;23.66;22.32
14293;BME280;62290;59.420;17.842;2023-11-21T09:24:10;102042.41;;;23.48;22.41
14293;BME280;62290;59.420;17.842;2023-11-21T09:26:38;102073.47;;;23.66;22.38
14293;BME280;62290;59.420;17.842;2023-11-21T09:29:05;102067.22;;;23.66;22.31
14293;BME280;62290;59.420;17.842;2023-11-21T09:31:36;102021.59;;;23.38;22.35
14293;BME280;62290;59.420;17.842;2023-11-21T09:34:05;102072.59;;;23.66;22.29
14293;BME280;62290;59.420;17.842;2023-11-21T09:36:33;102071.66;;;23.67;22.26
14293;BME280;62290;59.420;17.842;2023-11-21T09:39:01;102075.19;;;23.67;22.25
14293;BME280;62290;59.420;17.842;2023-11-21T09:41:38;102075.19;;;23.67;22.21
14293;BME280;62290;59.420;17.842;2023-11-21T09:44:09;102076.06;;;23.68;22.29
14293;BME280;62290;59.420;17.842;2023-11-21T09:46:42;102084.13;;;23.68;22.23
14293;BME280;62290;59.420;17.842;2023-11-21T09:49:11;102081.56;;;23.66;22.20
14293;BME280;62290;59.420;17.842;2023-11-21T09:51:42;102088.00;;;23.64;22.24
14293;BME280;62290;59.420;17.842;2023-11-21T09:54:11;102089.94;;;23.62;22.28
14293;BME280;62290;59.420;17.842;2023-11-21T09:56:40;102094.44;;;23.61;22.17
14293;BME280;62290;59.420;17.842;2023-11-21T09:59:10;102093.59;;;23.61;22.29
14293;BME280;62290;59.420;17.842;2023-11-21T10:01:43;102092.72;;;23.60;22.30
14293;BME280;62290;59.420;17.842;2023-11-21T10:04:11;102103.47;;;23.60;22.28
14293;BME280;62290;59.420;17.842;2023-11-21T10:06:39;102091.84;;;23.60;22.36
14293;BME280;62290;59.420;17.842;2023-11-21T10:09:09;102092.81;;;23.59;22.27
14293;BME280;62290;59.420;17.842;2023-11-21T10:11:40;102100.91;;;23.59;22.27
14293;BME280;62290;59.420;17.842;2023-11-21T10:14:10;102097.44;;;23.57;22.18
14293;BME280;62290;59.420;17.842;2023-11-21T10:16:42;102063.16;;;23.32;22.36
14293;BME280;62290;59.420;17.842;2023-11-21T10:19:14;102102.16;;;23.53;22.28
14293;BME280;62290;59.420;17.842;2023-11-21T10:21:43;102105.91;;;23.51;22.25
14293;BME280;62290;59.420;17.842;2023-11-21T10:24:11;102113.13;;;23.50;22.30
14293;BME280;62290;59.420;17.842;2023-11-21T10:26:39;102115.06;;;23.48;22.30
14293;BME280;62290;59.420;17.842;2023-11-21T10:29:19;102105.34;;;23.46;22.24
14293;BME280;62290;59.420;17.842;2023-11-21T10:31:50;102108.13;;;23.44;22.21
14293;BME280;62290;59.420;17.842;2023-11-21T10:34:21;102111.81;;;23.43;22.31
14293;BME280;62290;59.420;17.842;2023-11-21T10:36:50;102117.25;;;23.42;22.29
14293;BME280;62290;59.420;17.842;2023-11-21T10:39:18;102116.44;;;23.41;22.33
14293;BME280;62290;59.420;17.842;2023-11-21T10:41:48;102106.63;;;23.40;22.32
14293;BME280;62290;59.420;17.842;2023-11-21T10:44:17;102114.56;;;23.42;22.33
14293;BME280;62290;59.420;17.842;2023-11-21T10:46:50;102119.94;;;23.42;22.23
14293;BME280;62290;59.420;17.842;2023-11-21T10:49:20;102117.38;;;23.40;22.14
14293;BME280;62290;59.420;17.842;2023-11-21T10:51:48;102119.94;;;23.42;22.22
14293;BME280;62290;59.420;17.842;2023-11-21T10:54:19;102125.25;;;23.43;22.17
14293;BME280;62290;59.420;17.842;2023-11-21T10:56:49;102126.13;;;23.44;22.42
14293;BME280;62290;59.420;17.842;2023-11-21T10:59:18;102123.63;;;23.41;22.16
14293;BME280;62290;59.420;17.842;2023-11-21T11:01:53;102141.47;;;23.42;22.16
14293;BME280;62290;59.420;17.842;2023-11-21T11:04:22;102136.22;;;23.40;22.30
14293;BME280;62290;59.420;17.842;2023-11-21T11:06:54;102135.59;;;23.35;22.18
14293;BME280;62290;59.420;17.842;2023-11-21T11:09:23;102143.34;;;23.41;22.27
14293;BME280;62290;59.420;17.842;2023-11-21T11:11:52;102149.56;;;23.42;22.26
14293;BME280;62290;59.420;17.842;2023-11-21T11:14:21;102146.03;;;23.41;22.23
14293;BME280;62290;59.420;17.842;2023-11-21T11:16:54;102145.16;;;23.41;22.22
14293;BME280;62290;59.420;17.842;2023-11-21T11:19:23;102147.91;;;23.39;22.37
14293;BME280;62290;59.420;17.842;2023-11-21T11:22:04;102145.22;;;23.39;22.29
14293;BME280;62290;59.420;17.842;2023-11-21T11:24:53;102143.53;;;23.38;22.26
14293;BME280;62290;59.420;17.842;2023-11-21T11:27:34;102153.47;;;23.36;22.27
14293;BME280;62290;59.420;17.842;2023-11-21T11:30:13;102157.31;;;23.32;22.55
14293;BME280;62290;59.420;17.842;2023-11-21T11:32:54;102149.44;;;23.29;22.33
14293;BME280;62290;59.420;17.842;2023-11-21T11:35:30;102161.19;;;23.28;22.34
14293;BME280;62290;59.420;17.842;2023-11-21T11:38:01;102169.34;;;23.26;22.42
14293;BME280;62290;59.420;17.842;2023-11-21T11:40:38;102160.50;;;23.24;22.54
14293;BME280;62290;59.420;17.842;2023-11-21T11:43:07;102143.72;;;23.07;22.34
14293;BME280;62290;59.420;17.842;2023-11-21T11:45:36;102170.69;;;23.19;22.55
14293;BME280;62290;59.420;17.842;2023-11-21T11:48:11;102176.06;;;23.19;22.26
14293;BME280;62290;59.420;17.842;2023-11-21T11:50:53;102175.31;;;23.17;22.62
14293;BME280;62290;59.420;17.842;2023-11-21T11:53:35;102165.50;;;23.16;22.65
14293;BME280;62290;59.420;17.842;2023-11-21T11:56:22;102187.00;;;23.16;22.47
14293;BME280;62290;59.420;17.842;2023-11-21T11:58:53;102183.63;;;23.13;22.58
14293;BME280;62290;59.420;17.842;2023-11-21T12:01:22;102161.84;;;23.03;22.70
14293;BME280;62290;59.420;17.842;2023-11-21T12:04:24;102171.66;;;23.04;22.50
14293;BME280;62290;59.420;17.842;2023-11-21T12:07:01;102189.13;;;23.11;22.66
14293;BME280;62290;59.420;17.842;2023-11-21T12:09:31;102182.31;;;23.06;22.60
14293;BME280;62290;59.420;17.842;2023-11-21T12:12:00;102195.47;;;23.10;22.69
14293;BME280;62290;59.420;17.842;2023-11-21T12:14:30;102191.94;;;23.10;22.51
14293;BME280;62290;59.420;17.842;2023-11-21T12:16:59;102182.13;;;23.09;22.51
14293;BME280;62290;59.420;17.842;2023-11-21T12:19:28;102194.63;;;23.10;22.41
14293;BME280;62290;59.420;17.842;2023-11-21T12:21:56;102203.44;;;23.12;22.41
14293;BME280;62290;59.420;17.842;2023-11-21T12:24:24;102191.94;;;23.10;22.65
14293;BME280;62290;59.420;17.842;2023-11-21T12:26:55;102152.41;;;22.82;22.29
14293;BME280;62290;59.420;17.842;2023-11-21T12:29:23;102208.66;;;23.15;22.32
14293;BME280;62290;59.420;17.842;2023-11-21T12:31:51;102208.66;;;23.15;22.28
14293;BME280;62290;59.420;17.842;2023-11-21T12:34:19;102210.34;;;23.16;22.27
14293;BME280;62290;59.420;17.842;2023-11-21T12:36:49;102214.78;;;23.17;22.34
14293;BME280;62290;59.420;17.842;2023-11-21T12:39:17;102219.41;;;23.15;22.26
14293;BME280;62290;59.420;17.842;2023-11-21T12:41:49;102207.59;;;23.17;22.39
14293;BME280;62290;59.420;17.842;2023-11-21T12:44:17;102203.53;;;23.10;22.41
14293;BME280;62290;59.420;17.842;2023-11-21T12:46:45;102206.72;;;23.17;22.20
14293;BME280;62290;59.420;17.842;2023-11-21T12:49:14;102209.41;;;23.17;22.11
14293;BME280;62290;59.420;17.842;2023-11-21T12:51:45;102213.81;;;23.18;22.24
14293;BME280;62290;59.420;17.842;2023-11-21T12:54:15;102210.34;;;23.16;22.23